Aérodrome :
LOGIN :

S'inscrire | Disclaimer

   EN    FR    IT 

 










Légende :    VFR   VFR Marginal   IFR   IFR Intensif   IFR Très Intensif
Visi : 
Plafond : 
>= 8 km
>= 3000ft
5 à 8 km
1000 à 3000 ft
1500m à 5 km
500 à 1000 ft
800 à 1500m
200 à 500 ft
< 800m
< 200 ft
Symboles :   Orages  Brouillard  Fortes neiges  Fortes précipitations  Vent > 20 kt
SIGMETs :   Divers  Orages  Givrage  Turbulence  Onde Orograph.  Cendres Volcan.







- Altitude de l'aérodrome : 1345 ft
- Code IATA : FRZ


ETHF - Fritzlar

DERNIER METAR :
  • 131620Z 20020G30KT 5000 -SNRA BR OVC018 01/00 Q0999 WHT

METARs EXPIRÉS :
  • 131600Z 20022KT 5000 -SNRA BR OVC019 01/00 Q0999 WHT FCST CANCEL
  • 131520Z 20018KT 5000 -RA BR FEW010 OVC019 02/00 Q1000 WHT WHT TEMPO YLO
  • 131420Z 20018KT 5000 -RASN BR SCT010 OVC019 02/00 Q1001 WHT WHT TEMPO YLO
  • 131348Z 20016KT 6000 -SNRA SCT008 OVC019 02/01 Q1001 WHT WHT TEMPO YLO

TAF AMD TAF ETHF
Valide du 13 à 15h jusqu'au 14 à 00h UTC


131536Z 1315/1324 20015KT 8000 -RASN SCT007 OVC020
TEMPO 1315/1324 22020G30KT 2000 SNRA BKN006 OVC015 CANCEL 1600
Pas de NOTAMs connus pour ce terrain.



MET'MAP, la Météo Aéronautique d'un coup d'oeil ! - Copyright ORBIFLY Décembre 2007 - Disclaimer

ORBIFLY MET'MAP TEAM :

Programmation & Développement : Alexandra Zaïnal
Conception & Développement : Baudouin d'Aumeries
Co-Programmation & Développement : Marc-Olivier Méhu
Soutien technique & logistique : Manuel Goepfert

Contact : metmap@orbifly.com




SOURCES & CREDITS :

   NOAA